Aspen (ASE/KASE)

Map

Information

Location
Aspen, CO
Local Time
18:29 / 6:29 pm
GMT Time
22:29 / 10:29 pm
Gates
Unassigned
No FAA reported delays
METAR KASE 272153Z 35009KT 10SM BKN070 10/M06 A2982 RMK AO2 SLP036 T01001061
TAF KASE 272057Z 2721/2818 33006KT P6SM BKN050 OVC070 FM272200 20005KT P6SM VCSH BKN050 FM280100 17005KT P6SM -SHRA OVC050 FM280300 16004KT P6SM -SHRASN OVC050 FM280500 15004KT P6SM -SHSN OVC035 FM280900 16004KT 3SM -SHSN OVC035
  • No charts available